Weather observations for the past three days for
Chanute, Chanute Martin Johnson Airport
Imperial (Metric)
Date Time (cdt) Wind (mph) Vis. (mi.) Weather Sky Cond. Temperature (ºF) Relative Humidity Wind Chill (°F) Heat Index (°F) Pressure Precipitation (in)
Air Dwpt 6 hour altimeter (in) sea level (mb) 1 hr 3 hr 6 hr
Max. Min.
03 02:52 S 12 10.00 Fair CLR 82 64.9 56% 84 29.94 1012.3
03 01:52 SE 7 10.00 Fair CLR 79 64 60% 81 29.94 1012.3
03 00:52 S 7 10.00 Fair CLR 79 63 96.1 78.1 58% 81 29.93 1012.1
02 23:52 S 6 10.00 Fair CLR 79 64 60% 81 29.92 1011.9
02 22:52 SE 5 10.00 Fair CLR 80.1 64 58% 82 29.93 1012.0
02 21:52 S 5 10.00 Fair CLR 82.9 63 51% 84 29.93 1012.0
02 20:52 S 5 10.00 Fair CLR 84 62.1 48% 85 29.91 1011.4
02 19:52 S 8 10.00 Fair CLR 90 61 38% 90 29.9 1011.0
02 18:52 S 10 10.00 Fair CLR 96.1 61 100.9 96.1 31% 97 29.9 1011.0
02 17:52 S 15 10.00 Fair CLR 99 59 27% 99 29.9 1011.1
02 16:52 S 12 G 23 10.00 Fair CLR 100 61 28% 101 29.91 1011.3
02 15:52 S 15 G 23 10.00 A Few Clouds FEW085 100.9 61 27% 102 29.93 1011.9
02 14:52 S 15 G 23 10.00 Partly Cloudy SCT100 99 62.1 30% 100 29.95 1012.7
02 13:52 SW 15 G 24 10.00 Fair CLR 99 63 31% 101 29.98 1013.7
02 12:52 S 14 G 24 10.00 Fair CLR 97 64.9 98.1 77 35% 100 30 1014.6
02 11:52 S 15 10.00 Fair CLR 95 66 39% 98 30.02 1015.2
02 10:52 SW 13 10.00 Fair CLR 93 66.9 42% 97 30.03 1015.5
02 09:52 S 16 10.00 Fair CLR 89.1 66.9 48% 92 30.03 1015.5
02 08:52 S 14 10.00 Fair CLR 84.9 66.9 55% 88 30.03 1015.6
02 07:52 S 8 10.00 Fair CLR 79 66 65% 81 30.03 1015.3
02 06:52 S 7 10.00 Fair CLR 77 64.9 81 73.9 66% 79 30.01 1014.9
02 05:52 S 8 10.00 Fair CLR 78.1 64.9 64% 80 30 1014.4
02 04:52 S 8 10.00 Fair CLR 78.1 64 62% 80 29.99 1014.1
02 03:52 S 8 10.00 Fair CLR 79 64 60% 81 29.98 1013.6
02 02:52 S 7 10.00 Fair CLR 79 64 60% 81 29.97 1013.3
02 01:52 SE 6 10.00 Fair CLR 77 63 62% 79 29.98 1013.6
02 00:52 S 6 10.00 Fair CLR 78.1 62.1 96.1 75.9 58% 80 29.97 1013.6
01 23:52 S 5 10.00 Fair CLR 78.1 63 60% 80 29.98 1013.6
01 22:52 S 3 10.00 Fair CLR 77 64 64% 79 29.98 1013.7
01 21:52 S 5 10.00 Fair CLR 81 62.1 53% 82 29.97 1013.3
01 20:52 S 6 10.00 A Few Clouds FEW100 87.1 61 42% 87 29.95 1012.7
01 18:52 S 10 10.00 Fair CLR 96.1 60.1 100.9 96.1 30% 96 29.95 1012.6
01 17:52 S 12 10.00 Fair CLR 98.1 59 27% 98 29.95 1012.7
01 16:52 S 10 10.00 A Few Clouds FEW100 97 59 28% 97 29.95 1012.9
01 15:52 S 10 10.00 Partly Cloudy SCT100 98.1 59 27% 98 29.97 1013.5
01 14:52 SW 15 G 21 10.00 Mostly Cloudy BKN090 99 59 27% 99 29.99 1014.2
01 13:52 SW 15 G 23 10.00 Fair CLR 100 59 26% 100 30.01 1014.7
01 12:52 S 10 G 20 10.00 Fair CLR 98.1 60.1 98.1 73.9 28% 98 30.03 1015.4
01 10:52 SW 13 10.00 Fair CLR 91 64 41% 93 30.06 1016.4
01 09:52 S 15 10.00 Fair CLR 88 64.9 46% 90 30.06 1016.5
01 08:52 S 14 10.00 Fair CLR 82.9 64 53% 84 30.06 1016.7
01 07:52 S 8 10.00 Fair CLR 78.1 63 60% 80 30.05 1016.4
01 06:52 S 8 10.00 Fair CLR 75 62.1 80.1 73.9 64% 77 30.04 1015.9
01 05:52 S 7 10.00 Fair CLR 73.9 62.1 67% 30.02 1015.2
01 04:52 S 7 10.00 Fair CLR 73.9 62.1 67% 30.01 1014.9
01 03:52 S 6 10.00 Fair CLR 75.9 62.1 62% 78 30 1014.3
01 02:52 S 6 10.00 Fair CLR 77 61 58% 79 29.99 1014.1
01 01:52 S 7 10.00 Fair CLR 75.9 61 60% 78 30 1014.4
01 00:52 S 6 10.00 Fair CLR 75.9 60.1 96.1 75 58% 78 30 1014.3
31 23:52 S 7 10.00 Fair CLR 80.1 60.1 51% 81 29.99 1014.2
31 22:52 SE 5 10.00 Fair CLR 81 60.1 49% 82 29.98 1013.9
31 21:52 SE 6 10.00 Fair CLR 82.9 59 44% 83 29.98 1013.6
31 20:52 SE 7 10.00 Fair CLR 84 59 43% 84 29.96 1013.2
31 19:52 S 7 10.00 Fair CLR 89.1 59 36% 88 29.95 1012.8
31 18:52 S 13 10.00 Fair CLR 96.1 57.9 100.9 96.1 28% 95 29.95 1012.6
31 17:52 S 14 10.00 Fair CLR 99 57 25% 98 29.95 1012.6
31 16:52 S 13 G 20 10.00 Fair CLR 100 57.9 25% 100 29.95 1012.7
31 15:52 SW 10 G 23 10.00 Fair CLR 100 59 26% 100 29.96 1012.9
31 14:52 S 10 10.00 Fair CLR 100 60.1 27% 101 29.97 1013.4
31 13:52 SW 14 10.00 Fair CLR 99 59 27% 99 29.99 1014.0
31 12:52 SW 13 G 17 10.00 Fair CLR 97 62.1 98.1 75 32% 98 30.01 1014.8
31 11:52 SW 13 10.00 Fair CLR 95 62.1 34% 96 30.03 1015.4
31 10:52 SW 12 10.00 Fair CLR 90 63 41% 91 30.03 1015.5
31 09:52 S 14 10.00 Fair CLR 88 63 43% 89 30.03 1015.3
31 08:52 S 16 G 22 10.00 Fair CLR 82.9 62.1 49% 84 30.03 1015.6
31 07:52 S 9 10.00 Fair CLR 78.1 62.1 58% 80 30.02 1015.2
31 06:52 S 8 10.00 Fair CLR 75.9 61 84 75.9 60% 78 30 1014.5
31 05:52 S 9 10.00 Fair CLR 77 61 58% 79 29.98 1013.8
31 04:52 S 9 10.00 Fair CLR 78.1 60.1 54% 79 29.97 1013.2
31 03:52 S 10 10.00 Fair CLR 79 60.1 52% 80 29.96 1012.8
Date Time (cdt) Wind (mph) Vis. (mi.) Weather Sky Cond. Air Dwpt Max. Min. Relative Humidity Wind Chill (°F) Heat Index (°F) altimeter (in) sea level (mb) 1 hr 3 hr 6 hr
6 hour
Temperature (ºF) Pressure Precipitation (in)